sensor_id;sensor_type;location;lat;lon;timestamp;P1;durP1;ratioP1;P2;durP2;ratioP2
52724;SDS011;38621;52.830;6.914;2023-12-20T00:01:32;42.33;;;40.53;;
52724;SDS011;38621;52.830;6.914;2023-12-20T00:03:58;42.00;;;40.15;;
52724;SDS011;38621;52.830;6.914;2023-12-20T00:06:24;39.72;;;37.85;;
52724;SDS011;38621;52.830;6.914;2023-12-20T00:08:49;39.35;;;37.10;;
52724;SDS011;38621;52.830;6.914;2023-12-20T00:11:15;36.97;;;34.72;;
52724;SDS011;38621;52.830;6.914;2023-12-20T00:13:41;40.33;;;38.65;;
52724;SDS011;38621;52.830;6.914;2023-12-20T00:16:07;38.13;;;36.67;;
52724;SDS011;38621;52.830;6.914;2023-12-20T00:18:32;36.90;;;35.30;;
52724;SDS011;38621;52.830;6.914;2023-12-20T00:20:58;37.72;;;35.90;;
52724;SDS011;38621;52.830;6.914;2023-12-20T00:23:24;36.53;;;34.80;;
52724;SDS011;38621;52.830;6.914;2023-12-20T00:25:49;34.72;;;33.33;;
52724;SDS011;38621;52.830;6.914;2023-12-20T00:28:15;33.58;;;32.00;;
52724;SDS011;38621;52.830;6.914;2023-12-20T00:30:41;34.00;;;32.45;;
52724;SDS011;38621;52.830;6.914;2023-12-20T00:33:06;32.63;;;31.15;;
52724;SDS011;38621;52.830;6.914;2023-12-20T00:35:32;32.00;;;30.58;;
52724;SDS011;38621;52.830;6.914;2023-12-20T00:37:58;31.60;;;30.25;;
52724;SDS011;38621;52.830;6.914;2023-12-20T00:40:24;29.70;;;28.25;;
52724;SDS011;38621;52.830;6.914;2023-12-20T00:42:50;30.85;;;29.10;;
52724;SDS011;38621;52.830;6.914;2023-12-20T00:45:15;29.45;;;27.67;;
52724;SDS011;38621;52.830;6.914;2023-12-20T00:47:41;30.10;;;28.70;;
52724;SDS011;38621;52.830;6.914;2023-12-20T00:50:07;29.40;;;28.10;;
52724;SDS011;38621;52.830;6.914;2023-12-20T00:52:33;29.88;;;28.67;;
52724;SDS011;38621;52.830;6.914;2023-12-20T00:54:59;29.30;;;27.70;;
52724;SDS011;38621;52.830;6.914;2023-12-20T00:57:25;27.85;;;26.48;;
52724;SDS011;38621;52.830;6.914;2023-12-20T00:59:50;30.40;;;29.30;;
52724;SDS011;38621;52.830;6.914;2023-12-20T01:02:16;31.38;;;29.73;;
52724;SDS011;38621;52.830;6.914;2023-12-20T01:04:42;33.60;;;32.10;;
52724;SDS011;38621;52.830;6.914;2023-12-20T01:07:08;32.35;;;30.90;;
52724;SDS011;38621;52.830;6.914;2023-12-20T01:09:34;32.95;;;31.48;;
52724;SDS011;38621;52.830;6.914;2023-12-20T01:12:00;33.60;;;32.05;;
52724;SDS011;38621;52.830;6.914;2023-12-20T01:14:25;32.88;;;31.35;;
52724;SDS011;38621;52.830;6.914;2023-12-20T01:16:51;33.50;;;31.73;;
52724;SDS011;38621;52.830;6.914;2023-12-20T01:19:16;31.80;;;30.52;;
52724;SDS011;38621;52.830;6.914;2023-12-20T01:21:42;33.63;;;31.75;;
52724;SDS011;38621;52.830;6.914;2023-12-20T01:24:08;33.00;;;31.55;;
52724;SDS011;38621;52.830;6.914;2023-12-20T01:26:34;31.85;;;30.30;;
52724;SDS011;38621;52.830;6.914;2023-12-20T01:28:59;32.47;;;30.55;;
52724;SDS011;38621;52.830;6.914;2023-12-20T01:31:26;31.77;;;30.30;;
52724;SDS011;38621;52.830;6.914;2023-12-20T01:33:52;30.33;;;28.92;;
52724;SDS011;38621;52.830;6.914;2023-12-20T01:36:18;31.95;;;30.42;;
52724;SDS011;38621;52.830;6.914;2023-12-20T01:38:44;29.00;;;27.83;;
52724;SDS011;38621;52.830;6.914;2023-12-20T01:41:10;31.35;;;29.85;;
52724;SDS011;38621;52.830;6.914;2023-12-20T01:43:36;29.73;;;28.27;;
52724;SDS011;38621;52.830;6.914;2023-12-20T01:46:02;32.28;;;30.67;;
52724;SDS011;38621;52.830;6.914;2023-12-20T01:48:28;32.03;;;30.25;;
52724;SDS011;38621;52.830;6.914;2023-12-20T01:50:57;30.55;;;28.88;;
52724;SDS011;38621;52.830;6.914;2023-12-20T01:53:25;31.73;;;29.33;;
52724;SDS011;38621;52.830;6.914;2023-12-20T01:55:52;30.02;;;28.42;;
52724;SDS011;38621;52.830;6.914;2023-12-20T01:58:21;31.48;;;30.10;;
52724;SDS011;38621;52.830;6.914;2023-12-20T02:00:50;28.95;;;27.85;;
52724;SDS011;38621;52.830;6.914;2023-12-20T02:03:16;29.95;;;28.80;;
52724;SDS011;38621;52.830;6.914;2023-12-20T02:05:43;33.30;;;31.73;;
52724;SDS011;38621;52.830;6.914;2023-12-20T02:08:10;34.28;;;32.78;;
52724;SDS011;38621;52.830;6.914;2023-12-20T02:10:36;33.80;;;32.00;;
52724;SDS011;38621;52.830;6.914;2023-12-20T02:13:03;32.40;;;31.10;;
52724;SDS011;38621;52.830;6.914;2023-12-20T02:15:29;33.42;;;31.70;;
52724;SDS011;38621;52.830;6.914;2023-12-20T02:17:55;33.35;;;31.40;;
52724;SDS011;38621;52.830;6.914;2023-12-20T02:20:21;32.25;;;30.73;;
52724;SDS011;38621;52.830;6.914;2023-12-20T02:22:47;32.50;;;30.85;;
52724;SDS011;38621;52.830;6.914;2023-12-20T02:25:12;35.58;;;33.83;;
52724;SDS011;38621;52.830;6.914;2023-12-20T02:27:38;32.90;;;31.30;;
52724;SDS011;38621;52.830;6.914;2023-12-20T02:30:05;33.97;;;32.10;;
52724;SDS011;38621;52.830;6.914;2023-12-20T02:32:31;33.70;;;31.85;;
52724;SDS011;38621;52.830;6.914;2023-12-20T02:34:57;26.55;;;25.25;;
52724;SDS011;38621;52.830;6.914;2023-12-20T02:37:23;27.52;;;26.15;;
52724;SDS011;38621;52.830;6.914;2023-12-20T02:39:49;31.88;;;30.52;;
52724;SDS011;38621;52.830;6.914;2023-12-20T02:42:15;29.77;;;28.15;;
52724;SDS011;38621;52.830;6.914;2023-12-20T02:44:40;31.80;;;30.25;;
52724;SDS011;38621;52.830;6.914;2023-12-20T02:47:06;32.83;;;30.92;;
52724;SDS011;38621;52.830;6.914;2023-12-20T02:49:32;32.97;;;31.27;;
52724;SDS011;38621;52.830;6.914;2023-12-20T02:51:57;34.17;;;32.75;;
52724;SDS011;38621;52.830;6.914;2023-12-20T02:54:23;34.72;;;32.92;;
52724;SDS011;38621;52.830;6.914;2023-12-20T02:56:49;36.83;;;34.42;;
52724;SDS011;38621;52.830;6.914;2023-12-20T02:59:14;32.88;;;31.42;;
52724;SDS011;38621;52.830;6.914;2023-12-20T03:01:44;34.15;;;32.47;;
52724;SDS011;38621;52.830;6.914;2023-12-20T03:04:10;34.50;;;32.47;;
52724;SDS011;38621;52.830;6.914;2023-12-20T03:06:37;35.35;;;33.45;;
52724;SDS011;38621;52.830;6.914;2023-12-20T03:09:03;34.30;;;32.70;;
52724;SDS011;38621;52.830;6.914;2023-12-20T03:11:29;31.60;;;29.83;;
52724;SDS011;38621;52.830;6.914;2023-12-20T03:13:55;36.10;;;34.30;;
52724;SDS011;38621;52.830;6.914;2023-12-20T03:16:21;34.47;;;32.33;;
52724;SDS011;38621;52.830;6.914;2023-12-20T03:18:47;32.45;;;30.95;;
52724;SDS011;38621;52.830;6.914;2023-12-20T03:21:13;32.45;;;30.02;;
52724;SDS011;38621;52.830;6.914;2023-12-20T03:23:38;30.67;;;29.23;;
52724;SDS011;38621;52.830;6.914;2023-12-20T03:26:08;30.13;;;28.20;;
52724;SDS011;38621;52.830;6.914;2023-12-20T03:28:34;28.45;;;26.75;;
52724;SDS011;38621;52.830;6.914;2023-12-20T03:31:01;28.77;;;27.08;;
52724;SDS011;38621;52.830;6.914;2023-12-20T03:33:27;29.42;;;27.80;;
52724;SDS011;38621;52.830;6.914;2023-12-20T03:35:53;26.98;;;25.85;;
52724;SDS011;38621;52.830;6.914;2023-12-20T03:38:19;28.58;;;27.23;;
52724;SDS011;38621;52.830;6.914;2023-12-20T03:40:45;29.00;;;27.40;;
52724;SDS011;38621;52.830;6.914;2023-12-20T03:43:11;29.23;;;27.70;;
52724;SDS011;38621;52.830;6.914;2023-12-20T03:45:36;29.90;;;28.13;;
52724;SDS011;38621;52.830;6.914;2023-12-20T03:48:02;30.20;;;28.20;;
52724;SDS011;38621;52.830;6.914;2023-12-20T03:50:28;29.42;;;27.92;;
52724;SDS011;38621;52.830;6.914;2023-12-20T03:52:54;27.58;;;26.35;;
52724;SDS011;38621;52.830;6.914;2023-12-20T03:55:20;29.85;;;28.23;;
52724;SDS011;38621;52.830;6.914;2023-12-20T03:57:45;30.73;;;29.33;;
52724;SDS011;38621;52.830;6.914;2023-12-20T04:00:11;31.08;;;29.42;;
52724;SDS011;38621;52.830;6.914;2023-12-20T04:02:38;32.72;;;30.88;;
52724;SDS011;38621;52.830;6.914;2023-12-20T04:05:05;32.05;;;30.25;;
52724;SDS011;38621;52.830;6.914;2023-12-20T04:07:31;35.13;;;33.08;;
52724;SDS011;38621;52.830;6.914;2023-12-20T04:09:57;33.53;;;31.77;;
52724;SDS011;38621;52.830;6.914;2023-12-20T04:12:23;34.63;;;32.25;;
52724;SDS011;38621;52.830;6.914;2023-12-20T04:14:49;30.27;;;29.05;;
52724;SDS011;38621;52.830;6.914;2023-12-20T04:17:15;33.90;;;31.92;;
52724;SDS011;38621;52.830;6.914;2023-12-20T04:19:41;32.85;;;30.98;;
52724;SDS011;38621;52.830;6.914;2023-12-20T04:22:10;31.33;;;29.75;;
52724;SDS011;38621;52.830;6.914;2023-12-20T04:24:35;30.42;;;29.02;;
52724;SDS011;38621;52.830;6.914;2023-12-20T04:27:01;30.83;;;28.80;;
52724;SDS011;38621;52.830;6.914;2023-12-20T04:29:27;31.30;;;29.35;;
52724;SDS011;38621;52.830;6.914;2023-12-20T04:31:53;29.50;;;27.92;;
52724;SDS011;38621;52.830;6.914;2023-12-20T04:34:19;31.02;;;28.95;;
52724;SDS011;38621;52.830;6.914;2023-12-20T04:36:45;30.98;;;29.42;;
52724;SDS011;38621;52.830;6.914;2023-12-20T04:39:11;31.17;;;29.30;;
52724;SDS011;38621;52.830;6.914;2023-12-20T04:41:38;31.33;;;29.38;;
52724;SDS011;38621;52.830;6.914;2023-12-20T04:44:03;32.58;;;30.58;;
52724;SDS011;38621;52.830;6.914;2023-12-20T04:46:29;32.42;;;30.52;;
52724;SDS011;38621;52.830;6.914;2023-12-20T04:48:55;31.52;;;29.15;;
52724;SDS011;38621;52.830;6.914;2023-12-20T04:51:20;32.28;;;30.23;;
52724;SDS011;38621;52.830;6.914;2023-12-20T04:53:46;30.17;;;28.42;;
52724;SDS011;38621;52.830;6.914;2023-12-20T04:56:12;30.98;;;28.40;;
52724;SDS011;38621;52.830;6.914;2023-12-20T04:58:38;28.90;;;27.42;;
52724;SDS011;38621;52.830;6.914;2023-12-20T05:01:05;30.42;;;28.80;;
52724;SDS011;38621;52.830;6.914;2023-12-20T05:03:31;30.10;;;28.27;;
52724;SDS011;38621;52.830;6.914;2023-12-20T05:05:57;28.77;;;26.88;;
52724;SDS011;38621;52.830;6.914;2023-12-20T05:08:23;27.13;;;25.73;;
52724;SDS011;38621;52.830;6.914;2023-12-20T05:10:49;29.35;;;27.35;;
52724;SDS011;38621;52.830;6.914;2023-12-20T05:13:14;26.70;;;25.17;;
52724;SDS011;38621;52.830;6.914;2023-12-20T05:15:40;26.67;;;24.58;;
52724;SDS011;38621;52.830;6.914;2023-12-20T05:18:06;23.42;;;21.70;;
52724;SDS011;38621;52.830;6.914;2023-12-20T05:20:31;25.08;;;23.58;;
52724;SDS011;38621;52.830;6.914;2023-12-20T05:22:57;23.10;;;21.73;;
52724;SDS011;38621;52.830;6.914;2023-12-20T05:25:23;23.77;;;21.70;;
52724;SDS011;38621;52.830;6.914;2023-12-20T05:27:49;24.25;;;22.08;;
52724;SDS011;38621;52.830;6.914;2023-12-20T05:30:15;24.45;;;22.65;;
52724;SDS011;38621;52.830;6.914;2023-12-20T05:32:41;22.67;;;20.80;;
52724;SDS011;38621;52.830;6.914;2023-12-20T05:35:06;23.20;;;21.45;;
52724;SDS011;38621;52.830;6.914;2023-12-20T05:37:32;24.08;;;22.38;;
52724;SDS011;38621;52.830;6.914;2023-12-20T05:39:58;27.38;;;25.50;;
52724;SDS011;38621;52.830;6.914;2023-12-20T05:42:23;25.67;;;24.17;;
52724;SDS011;38621;52.830;6.914;2023-12-20T05:44:49;26.02;;;24.17;;
52724;SDS011;38621;52.830;6.914;2023-12-20T05:47:15;25.95;;;24.20;;
52724;SDS011;38621;52.830;6.914;2023-12-20T05:49:41;25.83;;;23.98;;
52724;SDS011;38621;52.830;6.914;2023-12-20T05:52:09;25.27;;;23.63;;
52724;SDS011;38621;52.830;6.914;2023-12-20T05:54:34;26.05;;;23.60;;
52724;SDS011;38621;52.830;6.914;2023-12-20T05:57:00;26.20;;;24.77;;
52724;SDS011;38621;52.830;6.914;2023-12-20T05:59:26;26.10;;;23.83;;
52724;SDS011;38621;52.830;6.914;2023-12-20T06:01:51;23.67;;;22.05;;
52724;SDS011;38621;52.830;6.914;2023-12-20T06:04:17;23.98;;;22.05;;
52724;SDS011;38621;52.830;6.914;2023-12-20T06:06:43;25.35;;;23.42;;
52724;SDS011;38621;52.830;6.914;2023-12-20T06:09:09;20.17;;;19.08;;
52724;SDS011;38621;52.830;6.914;2023-12-20T06:11:35;21.60;;;19.88;;
52724;SDS011;38621;52.830;6.914;2023-12-20T06:14:01;24.38;;;22.65;;
52724;SDS011;38621;52.830;6.914;2023-12-20T06:16:26;27.30;;;23.33;;
52724;SDS011;38621;52.830;6.914;2023-12-20T06:18:52;22.83;;;21.13;;
52724;SDS011;38621;52.830;6.914;2023-12-20T06:21:18;22.90;;;21.33;;
52724;SDS011;38621;52.830;6.914;2023-12-20T06:23:44;22.95;;;21.45;;
52724;SDS011;38621;52.830;6.914;2023-12-20T06:26:10;23.73;;;21.83;;
52724;SDS011;38621;52.830;6.914;2023-12-20T06:28:35;21.00;;;19.27;;
52724;SDS011;38621;52.830;6.914;2023-12-20T06:31:01;22.35;;;20.70;;
52724;SDS011;38621;52.830;6.914;2023-12-20T06:33:28;19.00;;;17.30;;
52724;SDS011;38621;52.830;6.914;2023-12-20T06:35:55;21.73;;;19.77;;
52724;SDS011;38621;52.830;6.914;2023-12-20T06:38:22;22.15;;;20.50;;
52724;SDS011;38621;52.830;6.914;2023-12-20T06:40:47;23.13;;;21.65;;
52724;SDS011;38621;52.830;6.914;2023-12-20T06:43:13;23.27;;;21.40;;
52724;SDS011;38621;52.830;6.914;2023-12-20T06:45:39;24.17;;;22.42;;
52724;SDS011;38621;52.830;6.914;2023-12-20T06:48:04;22.55;;;21.35;;
52724;SDS011;38621;52.830;6.914;2023-12-20T06:50:30;24.30;;;22.50;;
52724;SDS011;38621;52.830;6.914;2023-12-20T06:52:56;23.73;;;22.33;;
52724;SDS011;38621;52.830;6.914;2023-12-20T06:55:22;19.98;;;18.63;;
52724;SDS011;38621;52.830;6.914;2023-12-20T06:57:48;20.73;;;19.60;;
52724;SDS011;38621;52.830;6.914;2023-12-20T07:00:14;20.92;;;19.23;;
52724;SDS011;38621;52.830;6.914;2023-12-20T07:02:40;22.90;;;21.38;;
52724;SDS011;38621;52.830;6.914;2023-12-20T07:05:05;23.23;;;21.88;;
52724;SDS011;38621;52.830;6.914;2023-12-20T07:07:31;22.00;;;20.85;;
52724;SDS011;38621;52.830;6.914;2023-12-20T07:09:57;25.10;;;23.38;;
52724;SDS011;38621;52.830;6.914;2023-12-20T07:12:23;25.63;;;23.65;;
52724;SDS011;38621;52.830;6.914;2023-12-20T07:14:49;19.20;;;17.63;;
52724;SDS011;38621;52.830;6.914;2023-12-20T07:17:14;26.70;;;24.92;;
52724;SDS011;38621;52.830;6.914;2023-12-20T07:19:41;22.60;;;20.85;;
52724;SDS011;38621;52.830;6.914;2023-12-20T07:22:07;20.05;;;18.73;;
52724;SDS011;38621;52.830;6.914;2023-12-20T07:24:33;21.92;;;20.17;;
52724;SDS011;38621;52.830;6.914;2023-12-20T07:27:00;21.30;;;19.38;;
52724;SDS011;38621;52.830;6.914;2023-12-20T07:29:27;19.92;;;18.52;;
52724;SDS011;38621;52.830;6.914;2023-12-20T07:31:53;22.10;;;19.85;;
52724;SDS011;38621;52.830;6.914;2023-12-20T07:34:19;21.48;;;19.65;;
52724;SDS011;38621;52.830;6.914;2023-12-20T07:36:45;20.77;;;19.10;;
52724;SDS011;38621;52.830;6.914;2023-12-20T07:39:11;20.00;;;18.60;;
52724;SDS011;38621;52.830;6.914;2023-12-20T07:41:36;20.02;;;18.33;;
52724;SDS011;38621;52.830;6.914;2023-12-20T07:44:03;23.02;;;21.52;;
52724;SDS011;38621;52.830;6.914;2023-12-20T07:46:29;22.83;;;21.17;;
52724;SDS011;38621;52.830;6.914;2023-12-20T07:48:55;23.73;;;21.77;;
52724;SDS011;38621;52.830;6.914;2023-12-20T07:51:21;25.27;;;23.52;;
52724;SDS011;38621;52.830;6.914;2023-12-20T07:53:47;26.48;;;24.20;;
52724;SDS011;38621;52.830;6.914;2023-12-20T07:56:22;30.13;;;27.23;;
52724;SDS011;38621;52.830;6.914;2023-12-20T07:58:48;34.60;;;32.42;;
52724;SDS011;38621;52.830;6.914;2023-12-20T08:01:15;26.60;;;24.30;;
52724;SDS011;38621;52.830;6.914;2023-12-20T08:03:43;25.38;;;23.85;;
52724;SDS011;38621;52.830;6.914;2023-12-20T08:06:09;27.63;;;26.33;;
52724;SDS011;38621;52.830;6.914;2023-12-20T08:08:34;27.50;;;25.80;;
52724;SDS011;38621;52.830;6.914;2023-12-20T08:11:00;26.40;;;24.38;;
52724;SDS011;38621;52.830;6.914;2023-12-20T08:13:26;27.42;;;25.80;;
52724;SDS011;38621;52.830;6.914;2023-12-20T08:15:52;25.38;;;23.60;;
52724;SDS011;38621;52.830;6.914;2023-12-20T08:18:18;26.52;;;25.10;;
52724;SDS011;38621;52.830;6.914;2023-12-20T08:20:44;23.77;;;22.25;;
52724;SDS011;38621;52.830;6.914;2023-12-20T08:23:10;22.13;;;20.10;;
52724;SDS011;38621;52.830;6.914;2023-12-20T08:25:35;24.15;;;22.38;;
52724;SDS011;38621;52.830;6.914;2023-12-20T08:28:04;24.15;;;22.13;;
52724;SDS011;38621;52.830;6.914;2023-12-20T08:30:30;23.40;;;21.73;;
52724;SDS011;38621;52.830;6.914;2023-12-20T08:32:59;16.90;;;15.70;;
52724;SDS011;38621;52.830;6.914;2023-12-20T08:35:25;17.85;;;16.40;;
52724;SDS011;38621;52.830;6.914;2023-12-20T08:37:51;19.80;;;17.95;;
52724;SDS011;38621;52.830;6.914;2023-12-20T08:40:17;17.02;;;15.75;;
52724;SDS011;38621;52.830;6.914;2023-12-20T08:42:42;18.60;;;16.50;;
52724;SDS011;38621;52.830;6.914;2023-12-20T08:45:09;17.67;;;15.90;;
52724;SDS011;38621;52.830;6.914;2023-12-20T08:47:35;16.88;;;15.18;;
52724;SDS011;38621;52.830;6.914;2023-12-20T08:50:00;14.70;;;13.35;;
52724;SDS011;38621;52.830;6.914;2023-12-20T08:52:27;14.05;;;12.00;;
52724;SDS011;38621;52.830;6.914;2023-12-20T08:54:54;15.50;;;13.30;;
52724;SDS011;38621;52.830;6.914;2023-12-20T08:57:20;15.43;;;13.88;;
52724;SDS011;38621;52.830;6.914;2023-12-20T08:59:49;13.43;;;12.20;;
52724;SDS011;38621;52.830;6.914;2023-12-20T09:02:18;11.32;;;10.32;;
52724;SDS011;38621;52.830;6.914;2023-12-20T09:04:44;13.10;;;11.88;;
52724;SDS011;38621;52.830;6.914;2023-12-20T09:07:22;13.73;;;9.73;;
52724;SDS011;38621;52.830;6.914;2023-12-20T09:09:49;10.27;;;9.18;;
52724;SDS011;38621;52.830;6.914;2023-12-20T09:12:15;13.20;;;11.82;;
52724;SDS011;38621;52.830;6.914;2023-12-20T09:14:42;11.55;;;9.55;;
52724;SDS011;38621;52.830;6.914;2023-12-20T09:17:08;12.70;;;11.00;;
52724;SDS011;38621;52.830;6.914;2023-12-20T09:19:35;13.30;;;11.13;;
52724;SDS011;38621;52.830;6.914;2023-12-20T09:22:00;10.70;;;9.75;;
52724;SDS011;38621;52.830;6.914;2023-12-20T09:24:27;10.32;;;9.23;;
52724;SDS011;38621;52.830;6.914;2023-12-20T10:28:12;15.00;;;14.40;;
52724;SDS011;38621;52.830;6.914;2023-12-20T10:30:46;13.45;;;12.95;;
52724;SDS011;38621;52.830;6.914;2023-12-20T10:33:12;14.25;;;13.27;;
52724;SDS011;38621;52.830;6.914;2023-12-20T10:35:38;15.57;;;14.77;;
52724;SDS011;38621;52.830;6.914;2023-12-20T10:38:05;14.70;;;13.80;;
52724;SDS011;38621;52.830;6.914;2023-12-20T10:40:33;14.10;;;13.55;;
52724;SDS011;38621;52.830;6.914;2023-12-20T10:43:01;14.43;;;13.57;;
52724;SDS011;38621;52.830;6.914;2023-12-20T10:45:28;16.95;;;15.98;;
52724;SDS011;38621;52.830;6.914;2023-12-20T10:47:54;17.45;;;16.60;;
52724;SDS011;38621;52.830;6.914;2023-12-20T10:50:21;17.05;;;16.02;;
52724;SDS011;38621;52.830;6.914;2023-12-20T10:52:46;17.50;;;16.70;;
52724;SDS011;38621;52.830;6.914;2023-12-20T10:55:13;14.98;;;14.13;;
52724;SDS011;38621;52.830;6.914;2023-12-20T10:57:39;17.27;;;16.48;;
52724;SDS011;38621;52.830;6.914;2023-12-20T11:00:06;18.15;;;17.35;;
52724;SDS011;38621;52.830;6.914;2023-12-20T11:02:39;16.50;;;15.80;;
52724;SDS011;38621;52.830;6.914;2023-12-20T11:06:08;17.17;;;16.30;;
52724;SDS011;38621;52.830;6.914;2023-12-20T11:08:13;20.15;;;19.25;;
52724;SDS011;38621;52.830;6.914;2023-12-20T11:13:55;19.67;;;18.52;;
52724;SDS011;38621;52.830;6.914;2023-12-20T11:16:25;15.82;;;15.05;;
52724;SDS011;38621;52.830;6.914;2023-12-20T11:18:51;17.42;;;16.63;;
52724;SDS011;38621;52.830;6.914;2023-12-20T11:21:17;15.13;;;14.40;;
52724;SDS011;38621;52.830;6.914;2023-12-20T11:23:44;16.80;;;15.65;;
52724;SDS011;38621;52.830;6.914;2023-12-20T11:26:10;14.48;;;13.70;;
52724;SDS011;38621;52.830;6.914;2023-12-20T11:28:36;14.00;;;13.38;;
52724;SDS011;38621;52.830;6.914;2023-12-20T11:31:02;14.23;;;13.43;;
52724;SDS011;38621;52.830;6.914;2023-12-20T11:33:32;11.73;;;10.60;;
52724;SDS011;38621;52.830;6.914;2023-12-20T11:36:01;10.75;;;9.93;;
52724;SDS011;38621;52.830;6.914;2023-12-20T11:38:35;13.38;;;12.30;;
52724;SDS011;38621;52.830;6.914;2023-12-20T11:41:04;7.43;;;6.78;;
52724;SDS011;38621;52.830;6.914;2023-12-20T11:43:37;8.15;;;7.55;;
52724;SDS011;38621;52.830;6.914;2023-12-20T11:46:04;8.60;;;8.00;;
52724;SDS011;38621;52.830;6.914;2023-12-20T11:48:31;8.13;;;7.60;;
52724;SDS011;38621;52.830;6.914;2023-12-20T11:50:58;7.88;;;7.30;;
52724;SDS011;38621;52.830;6.914;2023-12-20T11:53:24;10.00;;;9.23;;
52724;SDS011;38621;52.830;6.914;2023-12-20T11:55:50;6.25;;;5.15;;
52724;SDS011;38621;52.830;6.914;2023-12-20T11:58:16;8.63;;;7.93;;
52724;SDS011;38621;52.830;6.914;2023-12-20T12:00:42;8.30;;;5.55;;
52724;SDS011;38621;52.830;6.914;2023-12-20T12:03:08;9.35;;;8.55;;
52724;SDS011;38621;52.830;6.914;2023-12-20T12:05:34;9.18;;;8.48;;
52724;SDS011;38621;52.830;6.914;2023-12-20T12:08:01;7.82;;;7.13;;
52724;SDS011;38621;52.830;6.914;2023-12-20T12:10:28;9.10;;;8.48;;
52724;SDS011;38621;52.830;6.914;2023-12-20T12:12:54;7.75;;;7.05;;
52724;SDS011;38621;52.830;6.914;2023-12-20T12:15:20;10.73;;;10.13;;
52724;SDS011;38621;52.830;6.914;2023-12-20T12:17:53;9.45;;;8.68;;
52724;SDS011;38621;52.830;6.914;2023-12-20T12:20:22;11.05;;;10.35;;
52724;SDS011;38621;52.830;6.914;2023-12-20T12:22:58;11.48;;;10.77;;
52724;SDS011;38621;52.830;6.914;2023-12-20T12:25:25;10.70;;;10.00;;
52724;SDS011;38621;52.830;6.914;2023-12-20T12:27:52;9.65;;;9.07;;
52724;SDS011;38621;52.830;6.914;2023-12-20T12:30:17;11.73;;;11.00;;
52724;SDS011;38621;52.830;6.914;2023-12-20T12:32:43;13.80;;;12.93;;
52724;SDS011;38621;52.830;6.914;2023-12-20T12:35:10;11.30;;;10.38;;
52724;SDS011;38621;52.830;6.914;2023-12-20T12:37:39;10.27;;;9.48;;
52724;SDS011;38621;52.830;6.914;2023-12-20T12:40:06;12.80;;;12.20;;
52724;SDS011;38621;52.830;6.914;2023-12-20T12:42:36;12.00;;;11.25;;
52724;SDS011;38621;52.830;6.914;2023-12-20T12:45:03;14.02;;;12.75;;
52724;SDS011;38621;52.830;6.914;2023-12-20T12:47:29;11.52;;;10.50;;
52724;SDS011;38621;52.830;6.914;2023-12-20T12:49:55;13.50;;;12.48;;
52724;SDS011;38621;52.830;6.914;2023-12-20T12:52:21;12.32;;;11.52;;
52724;SDS011;38621;52.830;6.914;2023-12-20T12:54:47;11.75;;;10.93;;
52724;SDS011;38621;52.830;6.914;2023-12-20T12:57:14;13.02;;;12.35;;
52724;SDS011;38621;52.830;6.914;2023-12-20T12:59:41;11.05;;;10.35;;
52724;SDS011;38621;52.830;6.914;2023-12-20T13:02:08;14.10;;;12.98;;
52724;SDS011;38621;52.830;6.914;2023-12-20T13:04:34;12.35;;;11.60;;
52724;SDS011;38621;52.830;6.914;2023-12-20T13:07:00;13.27;;;12.43;;
52724;SDS011;38621;52.830;6.914;2023-12-20T13:09:26;13.32;;;12.63;;
52724;SDS011;38621;52.830;6.914;2023-12-20T13:11:52;9.55;;;8.80;;
52724;SDS011;38621;52.830;6.914;2023-12-20T13:14:17;7.75;;;6.93;;
52724;SDS011;38621;52.830;6.914;2023-12-20T13:16:43;10.48;;;8.75;;
52724;SDS011;38621;52.830;6.914;2023-12-20T13:19:10;8.05;;;7.43;;
52724;SDS011;38621;52.830;6.914;2023-12-20T13:21:36;6.47;;;5.97;;
52724;SDS011;38621;52.830;6.914;2023-12-20T13:24:02;7.80;;;7.10;;
52724;SDS011;38621;52.830;6.914;2023-12-20T13:26:28;8.32;;;4.40;;
52724;SDS011;38621;52.830;6.914;2023-12-20T13:28:54;6.10;;;5.00;;
52724;SDS011;38621;52.830;6.914;2023-12-20T13:31:20;7.80;;;7.38;;
52724;SDS011;38621;52.830;6.914;2023-12-20T13:33:45;8.27;;;7.72;;
52724;SDS011;38621;52.830;6.914;2023-12-20T13:36:11;10.98;;;10.15;;
52724;SDS011;38621;52.830;6.914;2023-12-20T13:38:37;11.63;;;10.75;;
52724;SDS011;38621;52.830;6.914;2023-12-20T13:41:03;12.73;;;12.05;;
52724;SDS011;38621;52.830;6.914;2023-12-20T13:43:30;12.75;;;11.82;;
52724;SDS011;38621;52.830;6.914;2023-12-20T13:45:57;13.85;;;12.75;;
52724;SDS011;38621;52.830;6.914;2023-12-20T13:48:26;14.00;;;12.77;;
52724;SDS011;38621;52.830;6.914;2023-12-20T13:50:52;13.48;;;12.88;;
52724;SDS011;38621;52.830;6.914;2023-12-20T13:53:19;18.60;;;17.52;;
52724;SDS011;38621;52.830;6.914;2023-12-20T13:55:45;16.33;;;15.52;;
52724;SDS011;38621;52.830;6.914;2023-12-20T13:58:11;20.17;;;19.00;;
52724;SDS011;38621;52.830;6.914;2023-12-20T14:00:37;18.95;;;17.75;;
52724;SDS011;38621;52.830;6.914;2023-12-20T14:03:03;21.23;;;20.10;;
52724;SDS011;38621;52.830;6.914;2023-12-20T14:05:29;23.40;;;21.88;;
52724;SDS011;38621;52.830;6.914;2023-12-20T14:07:55;25.17;;;24.08;;
52724;SDS011;38621;52.830;6.914;2023-12-20T14:10:25;22.95;;;21.85;;
52724;SDS011;38621;52.830;6.914;2023-12-20T14:12:54;25.55;;;24.55;;
52724;SDS011;38621;52.830;6.914;2023-12-20T14:15:20;26.88;;;25.55;;
52724;SDS011;38621;52.830;6.914;2023-12-20T14:17:45;28.63;;;27.17;;
52724;SDS011;38621;52.830;6.914;2023-12-20T14:20:11;28.80;;;27.27;;
52724;SDS011;38621;52.830;6.914;2023-12-20T14:22:40;28.23;;;26.95;;
52724;SDS011;38621;52.830;6.914;2023-12-20T14:25:12;29.27;;;28.17;;
52724;SDS011;38621;52.830;6.914;2023-12-20T14:27:42;31.27;;;29.98;;
52724;SDS011;38621;52.830;6.914;2023-12-20T14:30:11;30.88;;;29.50;;
52724;SDS011;38621;52.830;6.914;2023-12-20T14:32:39;30.58;;;29.27;;
52724;SDS011;38621;52.830;6.914;2023-12-20T14:35:05;28.92;;;27.73;;
52724;SDS011;38621;52.830;6.914;2023-12-20T14:37:31;34.95;;;33.22;;
52724;SDS011;38621;52.830;6.914;2023-12-20T14:39:57;33.00;;;31.60;;
52724;SDS011;38621;52.830;6.914;2023-12-20T14:42:23;35.75;;;34.25;;
52724;SDS011;38621;52.830;6.914;2023-12-20T14:44:49;36.97;;;35.67;;
52724;SDS011;38621;52.830;6.914;2023-12-20T14:47:17;36.95;;;35.45;;
52724;SDS011;38621;52.830;6.914;2023-12-20T14:49:42;38.58;;;36.63;;
52724;SDS011;38621;52.830;6.914;2023-12-20T14:52:08;37.90;;;36.35;;
52724;SDS011;38621;52.830;6.914;2023-12-20T14:54:37;38.95;;;37.25;;
52724;SDS011;38621;52.830;6.914;2023-12-20T14:57:03;41.40;;;39.67;;
52724;SDS011;38621;52.830;6.914;2023-12-20T14:59:28;42.42;;;40.80;;
52724;SDS011;38621;52.830;6.914;2023-12-20T15:01:54;42.45;;;40.67;;
52724;SDS011;38621;52.830;6.914;2023-12-20T15:04:20;41.50;;;39.67;;
52724;SDS011;38621;52.830;6.914;2023-12-20T15:06:53;41.03;;;39.17;;
52724;SDS011;38621;52.830;6.914;2023-12-20T15:09:19;39.92;;;38.40;;
52724;SDS011;38621;52.830;6.914;2023-12-20T15:11:45;39.15;;;37.67;;
52724;SDS011;38621;52.830;6.914;2023-12-20T15:14:11;42.28;;;40.60;;
52724;SDS011;38621;52.830;6.914;2023-12-20T15:16:39;40.88;;;39.28;;
52724;SDS011;38621;52.830;6.914;2023-12-20T15:19:05;43.17;;;41.58;;
52724;SDS011;38621;52.830;6.914;2023-12-20T15:21:31;42.22;;;40.60;;
52724;SDS011;38621;52.830;6.914;2023-12-20T15:23:59;41.15;;;39.50;;